Time;durP1;ratioP1;P1;durP2;ratioP2;P2;SDS_P1;SDS_P2;PMS_P1;PMS_P2;Temp;Humidity;BMP_temperature;BMP_pressure;BME280_temperature;BME280_humidity;BME280_pressure;Samples;Min_cycle;Max_cycle;Signal;HPM_P1;HPM_P2
2022/11/19 00:00:46;;;;;;;7.47;4.50;;;;;;;;;;5066231;28;20039;-66
2022/11/19 00:03:12;;;;;;;7.53;4.83;;;;;;;;;;5062006;28;20489;-67
2022/11/19 00:05:39;;;;;;;6.65;4.60;;;;;;;;;;5069043;28;20628;-66
2022/11/19 00:08:04;;;;;;;9.15;5.43;;;;;;;;;;5068248;28;20163;-66
2022/11/19 00:10:29;;;;;;;6.13;4.27;;;;;;;;;;5067204;28;21112;-66
2022/11/19 00:12:54;;;;;;;5.57;3.93;;;;;;;;;;5066293;28;20051;-66
2022/11/19 00:15:20;;;;;;;7.28;4.22;;;;;;;;;;5067651;28;20397;-66
2022/11/19 00:17:45;;;;;;;6.63;4.35;;;;;;;;;;5066742;28;20036;-66
2022/11/19 00:20:10;;;;;;;6.03;4.50;;;;;;;;;;5066871;28;20124;-67
2022/11/19 00:22:35;;;;;;;7.22;4.70;;;;;;;;;;5066992;28;20048;-66
2022/11/19 00:25:01;;;;;;;6.70;4.00;;;;;;;;;;5067950;28;20048;-66
2022/11/19 00:27:26;;;;;;;6.13;3.93;;;;;;;;;;5067543;28;20067;-66
2022/11/19 00:29:51;;;;;;;6.53;4.53;;;;;;;;;;5049440;28;20040;-66
2022/11/19 00:32:16;;;;;;;7.67;4.57;;;;;;;;;;5066904;28;20378;-67
2022/11/19 00:34:41;;;;;;;7.30;4.13;;;;;;;;;;5067008;28;20040;-66
2022/11/19 00:37:07;;;;;;;7.90;4.20;;;;;;;;;;5067326;28;20045;-66
2022/11/19 00:39:32;;;;;;;6.53;3.75;;;;;;;;;;5068022;28;20837;-66
2022/11/19 00:41:57;;;;;;;4.70;3.10;;;;;;;;;;5067224;28;20123;-66
2022/11/19 00:44:22;;;;;;;5.73;3.50;;;;;;;;;;5064978;28;20279;-66
2022/11/19 00:46:47;;;;;;;5.57;3.20;;;;;;;;;;5066529;28;20283;-66
2022/11/19 00:49:13;;;;;;;5.07;3.00;;;;;;;;;;5065875;28;20290;-66
2022/11/19 00:51:38;;;;;;;5.77;3.80;;;;;;;;;;5065289;28;20407;-66
2022/11/19 00:54:03;;;;;;;5.63;3.30;;;;;;;;;;5065905;28;20986;-67
2022/11/19 00:56:28;;;;;;;6.25;3.60;;;;;;;;;;5060471;28;20059;-66
2022/11/19 00:58:54;;;;;;;7.30;4.20;;;;;;;;;;5060257;28;20075;-66
2022/11/19 01:01:21;;;;;;;7.45;4.28;;;;;;;;;;5049060;28;20082;-66
2022/11/19 01:03:46;;;;;;;6.30;4.00;;;;;;;;;;5067415;28;20032;-66
2022/11/19 01:06:12;;;;;;;7.72;4.78;;;;;;;;;;5066881;28;20035;-66
2022/11/19 01:08:37;;;;;;;7.55;4.28;;;;;;;;;;5066113;28;20040;-66
2022/11/19 01:11:07;;;;;;;7.23;4.53;;;;;;;;;;5065148;28;20040;-66
2022/11/19 01:13:35;;;;;;;10.13;4.70;;;;;;;;;;5065575;28;20040;-66
2022/11/19 01:16:06;;;;;;;8.18;4.78;;;;;;;;;;5066208;28;20610;-66
2022/11/19 01:18:31;;;;;;;6.55;4.28;;;;;;;;;;5064932;28;20404;-66
2022/11/19 01:20:56;;;;;;;4.65;3.53;;;;;;;;;;5063963;28;20048;-66
2022/11/19 01:23:21;;;;;;;4.97;3.27;;;;;;;;;;5065015;28;20414;-66
2022/11/19 01:25:47;;;;;;;5.80;3.80;;;;;;;;;;5065320;28;20741;-66
2022/11/19 01:28:12;;;;;;;6.30;3.20;;;;;;;;;;5065295;28;20109;-67
2022/11/19 01:30:41;;;;;;;5.17;3.40;;;;;;;;;;5056313;28;20306;-66
2022/11/19 01:33:06;;;;;;;6.95;3.60;;;;;;;;;;5053465;28;20029;-66
2022/11/19 01:35:33;;;;;;;5.07;3.13;;;;;;;;;;5043778;28;20042;-66
2022/11/19 01:37:59;;;;;;;5.15;3.33;;;;;;;;;;5066828;28;20110;-67
2022/11/19 01:40:25;;;;;;;4.47;3.28;;;;;;;;;;5063096;28;20037;-66
2022/11/19 01:42:50;;;;;;;5.40;3.23;;;;;;;;;;5063341;28;20422;-66
2022/11/19 01:45:21;;;;;;;6.20;3.72;;;;;;;;;;5058916;28;20758;-66
2022/11/19 01:47:46;;;;;;;;;;;;;;;;;;5066473;28;20048;-66
2022/11/19 01:50:11;;;;;;;6.15;3.70;;;;;;;;;;5059482;28;19985;-66
2022/11/19 01:52:38;;;;;;;4.60;3.42;;;;;;;;;;5059716;28;20040;-66
2022/11/19 01:55:04;;;;;;;7.18;3.92;;;;;;;;;;5061680;28;20067;-66
2022/11/19 01:57:29;;;;;;;5.35;3.70;;;;;;;;;;5064328;28;20474;-66
2022/11/19 01:59:54;;;;;;;7.43;4.30;;;;;;;;;;5043245;28;20313;-66
2022/11/19 02:02:21;;;;;;;8.20;4.47;;;;;;;;;;5065115;28;20391;-66
2022/11/19 02:04:47;;;;;;;7.57;4.53;;;;;;;;;;5065161;28;20040;-66
2022/11/19 02:07:12;;;;;;;10.00;5.63;;;;;;;;;;5064815;28;20082;-66
2022/11/19 02:09:38;;;;;;;8.32;4.70;;;;;;;;;;5041740;28;20090;-66
2022/11/19 02:12:22;;;;;;;7.18;4.43;;;;;;;;;;5064486;28;20036;-66
2022/11/19 02:15:06;;;;;;;7.18;4.25;;;;;;;;;;5064354;28;20044;-66
2022/11/19 02:17:34;;;;;;;5.70;4.07;;;;;;;;;;5057379;28;20045;-66
2022/11/19 02:20:14;;;;;;;6.13;4.47;;;;;;;;;;5061922;28;20115;-66
2022/11/19 02:22:53;;;;;;;5.13;4.20;;;;;;;;;;5045829;28;20048;-66
2022/11/19 02:25:53;;;;;;;7.32;4.13;;;;;;;;;;5065177;28;20028;-66
2022/11/19 02:28:28;;;;;;;6.18;4.30;;;;;;;;;;5038522;28;20071;-66
2022/11/19 02:31:03;;;;;;;6.57;5.00;;;;;;;;;;5060335;28;20551;-66
2022/11/19 02:33:33;;;;;;;7.90;4.88;;;;;;;;;;5060096;28;20044;-66
2022/11/19 02:36:04;;;;;;;6.68;4.68;;;;;;;;;;5063481;28;20060;-66
2022/11/19 02:38:40;;;;;;;5.75;4.30;;;;;;;;;;5063751;28;20436;-66
2022/11/19 02:41:34;;;;;;;8.02;4.60;;;;;;;;;;5062867;23;20116;-89
2022/11/19 02:47:00;;;;;;;6.47;4.93;;;;;;;;;;5059862;28;20044;-88
2022/11/19 02:49:29;;;;;;;9.27;5.50;;;;;;;;;;5049334;28;20443;-88
2022/11/19 02:51:54;;;;;;;8.38;5.10;;;;;;;;;;5049182;28;20067;-89
2022/11/19 02:54:21;;;;;;;7.85;5.28;;;;;;;;;;5062708;28;20784;-88
2022/11/19 02:56:51;;;;;;;7.55;4.78;;;;;;;;;;5062179;28;20472;-88
2022/11/19 03:04:49;;;;;;;6.15;4.63;;;;;;;;;;5071131;28;20035;-87
2022/11/19 03:07:16;;;;;;;11.02;4.95;;;;;;;;;;5067966;28;20029;-87
2022/11/19 03:09:44;;;;;;;6.45;4.63;;;;;;;;;;5058577;28;20050;-87
2022/11/19 03:12:18;;;;;;;6.47;4.20;;;;;;;;;;5061454;28;20033;-86
2022/11/19 03:17:38;;;;;;;7.00;4.80;;;;;;;;;;5074352;28;20070;-89
2022/11/19 03:20:23;;;;;;;5.85;4.30;;;;;;;;;;5041488;28;20034;-88
2022/11/19 03:22:54;;;;;;;6.55;3.90;;;;;;;;;;5049935;28;20047;-88
2022/11/19 03:25:31;;;;;;;5.65;3.80;;;;;;;;;;5066747;28;20053;-87
2022/11/19 03:28:01;;;;;;;6.43;4.15;;;;;;;;;;5047795;28;20036;-87
2022/11/19 03:30:28;;;;;;;5.28;4.15;;;;;;;;;;5058704;28;20908;-88
2022/11/19 03:33:13;;;;;;;6.28;4.50;;;;;;;;;;5069517;28;20086;-87
2022/11/19 03:35:44;;;;;;;9.52;5.78;;;;;;;;;;5058589;28;20052;-89
2022/11/19 03:38:13;;;;;;;9.18;5.43;;;;;;;;;;5069840;28;20048;-89
2022/11/19 03:40:38;;;;;;;7.43;5.30;;;;;;;;;;5065677;28;20044;-88
2022/11/19 03:43:05;;;;;;;7.05;5.50;;;;;;;;;;5052421;28;20028;-87
2022/11/19 03:45:33;;;;;;;8.68;5.43;;;;;;;;;;5059690;28;20042;-87
2022/11/19 03:47:59;;;;;;;9.30;6.00;;;;;;;;;;5057307;28;20112;-88
2022/11/19 03:50:28;;;;;;;8.27;5.40;;;;;;;;;;5061248;28;20053;-87
2022/11/19 03:52:53;;;;;;;6.78;5.05;;;;;;;;;;5053546;28;20043;-87
2022/11/19 03:55:22;;;;;;;6.63;5.03;;;;;;;;;;5054530;28;20033;-88
2022/11/19 03:57:48;;;;;;;7.72;5.22;;;;;;;;;;5061313;28;20567;-87
2022/11/19 04:00:14;;;;;;;7.53;5.40;;;;;;;;;;5063337;28;20480;-88
2022/11/19 04:02:39;;;;;;;8.30;6.03;;;;;;;;;;5070049;28;20039;-88
2022/11/19 04:05:04;;;;;;;7.72;5.85;;;;;;;;;;5066188;28;20025;-89
2022/11/19 04:07:29;;;;;;;8.00;5.97;;;;;;;;;;5056749;28;20037;-87
2022/11/19 04:09:55;;;;;;;8.80;5.87;;;;;;;;;;5063074;28;20034;-89
2022/11/19 04:12:21;;;;;;;9.63;5.45;;;;;;;;;;5057265;28;20287;-88
2022/11/19 04:14:46;;;;;;;9.95;5.40;;;;;;;;;;5082120;28;20072;-88
2022/11/19 04:17:11;;;;;;;7.13;5.60;;;;;;;;;;5058448;28;20127;-88
2022/11/19 04:19:37;;;;;;;8.38;5.72;;;;;;;;;;5070670;28;20294;-88
2022/11/19 04:22:02;;;;;;;8.57;6.20;;;;;;;;;;5059694;28;20132;-89
2022/11/19 04:24:27;;;;;;;8.18;6.28;;;;;;;;;;5056412;28;20037;-88
2022/11/19 04:26:53;;;;;;;9.50;6.70;;;;;;;;;;5055315;28;20037;-88
2022/11/19 04:29:18;;;;;;;8.20;6.53;;;;;;;;;;5072824;28;20287;-88
2022/11/19 04:31:43;;;;;;;9.48;6.50;;;;;;;;;;5057328;28;20302;-88
2022/11/19 04:34:10;;;;;;;9.00;6.85;;;;;;;;;;5048457;28;20389;-87
2022/11/19 04:36:35;;;;;;;9.05;6.90;;;;;;;;;;5070591;28;20048;-87
2022/11/19 04:39:00;;;;;;;9.32;6.80;;;;;;;;;;5056364;28;20048;-88
2022/11/19 04:41:26;;;;;;;9.10;6.22;;;;;;;;;;5061691;28;20083;-88
2022/11/19 04:43:51;;;;;;;9.67;7.63;;;;;;;;;;5060970;28;20490;-87
2022/11/19 04:46:16;;;;;;;11.10;7.40;;;;;;;;;;5057515;28;20283;-88
2022/11/19 04:48:42;;;;;;;8.88;6.40;;;;;;;;;;5057763;28;20294;-87
2022/11/19 04:51:07;;;;;;;9.65;7.00;;;;;;;;;;5054712;28;20076;-88
2022/11/19 04:53:32;;;;;;;10.38;7.45;;;;;;;;;;5075046;28;20589;-87
2022/11/19 04:55:57;;;;;;;12.15;7.15;;;;;;;;;;5051929;28;20047;-87
2022/11/19 04:58:22;;;;;;;11.60;7.13;;;;;;;;;;5049463;28;20044;-88
2022/11/19 05:00:48;;;;;;;11.47;7.00;;;;;;;;;;5055165;28;20101;-87
2022/11/19 05:03:13;;;;;;;11.13;6.68;;;;;;;;;;5054717;28;20032;-88
2022/11/19 05:05:38;;;;;;;12.05;7.25;;;;;;;;;;5050484;28;20037;-87
2022/11/19 05:08:04;;;;;;;8.20;6.22;;;;;;;;;;5049389;28;20039;-88
2022/11/19 05:10:29;;;;;;;8.13;5.78;;;;;;;;;;5075834;28;20051;-86
2022/11/19 05:12:54;;;;;;;7.63;5.43;;;;;;;;;;5055656;28;20044;-86
2022/11/19 05:15:19;;;;;;;5.67;4.73;;;;;;;;;;5048610;28;20282;-87
2022/11/19 05:17:44;;;;;;;6.13;4.73;;;;;;;;;;5055016;28;20052;-87
2022/11/19 05:20:10;;;;;;;6.68;4.70;;;;;;;;;;5049974;28;20037;-87
2022/11/19 05:22:35;;;;;;;6.10;3.80;;;;;;;;;;5051320;28;20143;-88
2022/11/19 05:25:01;;;;;;;6.03;4.35;;;;;;;;;;5061355;28;20666;-87
2022/11/19 05:27:26;;;;;;;5.80;4.60;;;;;;;;;;5052661;28;20045;-87
2022/11/19 05:29:51;;;;;;;9.30;5.33;;;;;;;;;;5053587;28;20324;-88
2022/11/19 05:32:16;;;;;;;9.43;6.37;;;;;;;;;;5049870;28;20291;-88
2022/11/19 05:34:41;;;;;;;8.03;5.80;;;;;;;;;;5055886;28;20404;-87
2022/11/19 05:37:06;;;;;;;7.20;5.73;;;;;;;;;;5054365;28;20040;-88
2022/11/19 05:39:32;;;;;;;7.27;5.27;;;;;;;;;;5047647;28;20283;-87
2022/11/19 05:41:57;;;;;;;11.70;7.10;;;;;;;;;;5051563;28;20269;-85
2022/11/19 05:44:22;;;;;;;14.37;7.67;;;;;;;;;;5051984;28;20416;-86
2022/11/19 05:46:47;;;;;;;13.07;8.47;;;;;;;;;;5050825;28;20816;-86
2022/11/19 05:49:12;;;;;;;10.07;7.53;;;;;;;;;;5051539;28;20036;-86
2022/11/19 05:51:38;;;;;;;9.57;7.00;;;;;;;;;;5039470;28;20295;-85
2022/11/19 05:54:03;;;;;;;9.20;6.93;;;;;;;;;;5043429;28;20446;-87
2022/11/19 05:56:28;;;;;;;10.52;7.35;;;;;;;;;;5057345;28;20411;-88
2022/11/19 05:58:53;;;;;;;11.53;8.00;;;;;;;;;;5034218;28;20033;-87
2022/11/19 06:01:25;;;;;;;11.10;7.17;;;;;;;;;;5040886;28;20370;-86
2022/11/19 06:03:50;;;;;;;11.85;7.25;;;;;;;;;;5037620;28;20040;-86
2022/11/19 06:06:16;;;;;;;9.18;5.93;;;;;;;;;;5042281;28;20502;-86
2022/11/19 06:08:41;;;;;;;11.23;7.77;;;;;;;;;;5047033;28;20039;-87
2022/11/19 06:11:06;;;;;;;8.70;5.97;;;;;;;6.92;nan;99570.78;5048346;28;20508;-87
2022/11/19 06:13:31;;;;;;;7.80;5.38;;;;;;;6.93;nan;99408.69;5050573;28;20068;-87
2022/11/19 06:15:57;;;;;;;6.60;4.50;;;;;;;;;;5059789;28;20519;-86
2022/11/19 06:18:22;;;;;;;10.57;6.70;;;;;;;;;;5047956;28;20062;-87
2022/11/19 06:20:47;;;;;;;6.87;5.20;;;;;;;;;;5057754;28;20055;-86
2022/11/19 06:23:12;;;;;;;7.70;5.13;;;;;;;;;;5041078;28;20047;-87
2022/11/19 06:25:37;;;;;;;7.20;5.53;;;;;;;;;;5066644;28;20060;-86
2022/11/19 06:28:03;;;;;;;8.98;4.70;;;;;;;;;;5048040;28;20039;-86
2022/11/19 06:30:28;;;;;;;9.68;4.85;;;;;;;;;;5049066;28;20055;-87
2022/11/19 06:32:53;;;;;;;7.45;5.20;;;;;;;;;;5047220;28;20060;-87
2022/11/19 06:35:18;;;;;;;6.90;4.77;;;;;;;;;;5054329;28;20044;-86
2022/11/19 06:37:44;;;;;;;8.00;4.80;;;;;;;;;;5066357;28;20033;-87
2022/11/19 06:40:09;;;;;;;6.97;4.90;;;;;;;;;;5050093;28;20060;-87
2022/11/19 06:42:34;;;;;;;7.40;4.80;;;;;;;;;;5048815;28;20344;-87
2022/11/19 06:45:00;;;;;;;7.50;4.85;;;;;;;;;;5061948;28;20091;-86
2022/11/19 06:47:25;;;;;;;9.15;5.68;;;;;;;;;;5049787;28;20044;-86
2022/11/19 06:49:50;;;;;;;9.20;6.00;;;;;;;;;;5038620;28;20042;-86
2022/11/19 06:52:15;;;;;;;9.13;5.68;;;;;;;;;;5046348;28;20059;-86
2022/11/19 06:54:41;;;;;;;7.83;5.10;;;;;;;6.72;nan;99427.44;5061489;28;20098;-87
2022/11/19 06:57:06;;;;;;;6.25;4.57;;;;;;;;;;5056685;28;20045;-86
2022/11/19 06:59:31;;;;;;;9.10;5.23;;;;;;;;;;5043659;28;20045;-86
2022/11/19 07:01:56;;;;;;;7.30;4.90;;;;;;;;;;5071881;28;20299;-85
2022/11/19 07:04:21;;;;;;;7.53;4.83;;;;;;;;;;5045923;28;20428;-86
2022/11/19 07:06:47;;;;;;;7.53;4.63;;;;;;;;;;5042823;28;20148;-86
2022/11/19 07:09:12;;;;;;;7.30;4.80;;;;;;;;;;5059631;28;20040;-85
2022/11/19 07:11:37;;;;;;;10.43;6.20;;;;;;;;;;5044879;28;20830;-87
2022/11/19 07:14:02;;;;;;;7.53;5.45;;;;;;;;;;5057498;28;20287;-89
2022/11/19 07:16:29;;;;;;;9.50;6.85;;;;;;;;;;5046838;28;20520;-87
2022/11/19 07:18:58;;;;;;;8.93;6.63;;;;;;;;;;5049217;28;20090;-86
2022/11/19 07:21:23;;;;;;;10.50;6.93;;;;;;;;;;5055518;28;20041;-86
2022/11/19 07:23:49;;;;;;;9.48;6.68;;;;;;;;;;5046626;28;20056;-85
2022/11/19 07:26:14;;;;;;;8.97;6.43;;;;;;;;;;5037583;28;20033;-87
2022/11/19 07:28:39;;;;;;;6.57;4.80;;;;;;;;;;5071549;28;20045;-86
2022/11/19 07:31:05;;;;;;;10.27;6.60;;;;;;;;;;5056017;28;20298;-85
2022/11/19 07:33:30;;;;;;;10.50;6.25;;;;;;;;;;5053043;28;20287;-87
2022/11/19 07:35:55;;;;;;;10.23;5.23;;;;;;;;;;5049008;28;20068;-87
2022/11/19 07:38:20;;;;;;;7.53;4.60;;;;;;;;;;5050788;28;20069;-86
2022/11/19 07:40:52;;;;;;;6.75;4.22;;;;;;;;;;5051011;28;20041;-86
2022/11/19 07:43:17;;;;;;;5.60;3.75;;;;;;;;;;5056464;28;20543;-87
2022/11/19 07:45:42;;;;;;;5.90;4.20;;;;;;;;;;5050138;28;20136;-88
2022/11/19 07:48:09;;;;;;;6.37;4.03;;;;;;;;;;5049453;28;20092;-87
2022/11/19 07:50:34;;;;;;;5.50;3.80;;;;;;;;;;5056084;28;20048;-87
2022/11/19 07:52:59;;;;;;;5.63;3.45;;;;;;;;;;5045020;28;20451;-89
2022/11/19 07:55:24;;;;;;;5.10;3.67;;;;;;;;;;5066052;28;20105;-88
2022/11/19 07:57:51;;;;;;;9.37;5.60;;;;;;;;;;5053442;28;20394;-87
2022/11/19 08:00:17;;;;;;;8.80;6.05;;;;;;;;;;5046006;28;20270;-87
2022/11/19 08:02:42;;;;;;;9.52;6.15;;;;;;;;;;5053287;28;20052;-87
2022/11/19 08:05:07;;;;;;;8.40;5.77;;;;;;;;;;5058111;28;20048;-87
2022/11/19 08:07:32;;;;;;;7.35;5.15;;;;;;;;;;5053411;28;20290;-86
2022/11/19 08:09:58;;;;;;;6.03;4.50;;;;;;;;;;5073560;28;20108;-88
2022/11/19 08:12:23;;;;;;;6.33;4.17;;;;;;;;;;5050989;28;20041;-87
2022/11/19 08:14:48;;;;;;;6.43;4.20;;;;;;;;;;5057209;28;20047;-87
2022/11/19 08:19:57;;;;;;;5.43;3.90;;;;;;;;;;5057028;28;20114;-86
2022/11/19 08:22:23;;;;;;;4.90;3.47;;;;;;;;;;5045527;28;20040;-84
2022/11/19 08:24:48;;;;;;;4.53;3.08;;;;;;;;;;5040986;28;20288;-86
2022/11/19 08:27:13;;;;;;;5.23;3.57;;;;;;;;;;5052760;28;20071;-86
2022/11/19 08:29:39;;;;;;;5.80;3.30;;;;;;;;;;5038202;28;20801;-87
2022/11/19 08:32:04;;;;;;;5.73;3.10;;;;;;;;;;5057965;28;20037;-86
2022/11/19 08:34:31;;;;;;;4.50;3.00;;;;;;;;;;5048742;28;20279;-86
2022/11/19 08:36:56;;;;;;;3.97;2.80;;;;;;;;;;5049028;28;20380;-86
2022/11/19 08:39:21;;;;;;;6.50;3.67;;;;;;;;;;5054724;28;20296;-87
2022/11/19 08:44:30;;;;;;;4.80;3.05;;;;;;;;;;5068331;28;20126;-88
2022/11/19 08:46:55;;;;;;;3.70;2.83;;;;;;;;;;5070858;28;20036;-87
2022/11/19 08:49:21;;;;;;;5.10;2.85;;;;;;;;;;5038156;28;20392;-87
2022/11/19 08:51:46;;;;;;;3.80;2.80;;;;;;;;;;5042425;28;21408;-87
2022/11/19 08:54:12;;;;;;;4.93;2.67;;;;;;;;;;5065893;28;20283;-86
2022/11/19 08:56:37;;;;;;;4.18;3.05;;;;;;;;;;5047966;28;20144;-86
2022/11/19 08:59:02;;;;;;;4.30;2.73;;;;;;;;;;5068398;28;20048;-86
2022/11/19 09:01:27;;;;;;;4.00;2.67;;;;;;;;;;5057164;28;20044;-87
2022/11/19 09:03:52;;;;;;;3.97;2.92;;;;;;;;;;5045392;28;20353;-87
2022/11/19 09:06:18;;;;;;;3.60;2.60;;;;;;;;;;5048180;28;20033;-87
2022/11/19 09:08:43;;;;;;;3.80;2.80;;;;;;;;;;5047321;28;20069;-86
2022/11/19 09:11:13;;;;;;;5.97;3.20;;;;;;;;;;5046854;28;20029;-86
2022/11/19 09:13:38;;;;;;;4.15;3.00;;;;;;;;;;5064030;28;20071;-87
2022/11/19 09:16:04;;;;;;;4.15;2.50;;;;;;;;;;5050150;28;20065;-86
2022/11/19 09:18:30;;;;;;;5.45;3.22;;;;;;;;;;5038291;28;20495;-87
2022/11/19 09:20:55;;;;;;;6.25;3.45;;;;;;;;;;5053140;28;20036;-86
2022/11/19 09:23:21;;;;;;;4.00;3.03;;;;;;;;;;5050679;28;20036;-88
2022/11/19 09:25:57;;;;;;;4.60;3.03;;;;;;;;;;5049982;28;20041;-88
2022/11/19 09:28:22;;;;;;;6.00;4.15;;;;;;;;;;5054175;28;20041;-87
2022/11/19 09:30:58;;;;;;;5.23;3.70;;;;;;;;;;5045542;28;20073;-86
2022/11/19 09:33:23;;;;;;;5.75;3.90;;;;;;;;;;5037753;28;20801;-87
2022/11/19 09:35:49;;;;;;;5.88;4.10;;;;;;;;;;5054843;28;20029;-85
2022/11/19 09:38:14;;;;;;;6.73;4.33;;;;;;;;;;5039959;28;20513;-86
2022/11/19 09:40:42;;;;;;;5.73;3.97;;;;;;;;;;5039961;28;20307;-85
2022/11/19 09:43:29;;;;;;;5.07;3.65;;;;;;;;;;5065198;28;20033;-86
2022/11/19 09:45:54;;;;;;;6.03;3.70;;;;;;;;;;5055851;28;20033;-85
2022/11/19 09:48:22;;;;;;;7.80;4.50;;;;;;;;;;5042709;28;20103;-85
2022/11/19 09:50:50;;;;;;;5.60;3.88;;;;;;;;;;5065137;28;20100;-87
2022/11/19 09:53:17;;;;;;;6.55;4.70;;;;;;;;;;5042233;28;20100;-86
2022/11/19 09:55:44;;;;;;;5.75;3.90;;;;;;;;;;5057262;28;20029;-86
2022/11/19 09:58:25;;;;;;;5.60;3.45;;;;;;;;;;5060229;28;20028;-85
2022/11/19 10:00:50;;;;;;;5.40;3.87;;;;;;;;;;5044788;28;20569;-85
2022/11/19 10:03:25;;;;;;;6.53;4.60;;;;;;;;;;5044236;28;20278;-84
2022/11/19 10:05:50;;;;;;;6.50;4.63;;;;;;;;;;5041096;28;20522;-87
2022/11/19 10:08:30;;;;;;;6.73;4.30;;;;;;;;;;5042620;28;20041;-84
2022/11/19 10:11:14;;;;;;;7.20;4.83;;;;;;;;;;5065093;28;20044;-84
2022/11/19 10:13:49;;;;;;;6.35;4.55;;;;;;;;;;5049365;28;20124;-84
2022/11/19 10:16:33;;;;;;;5.80;4.22;;;;;;;;;;5040425;28;20033;-84
2022/11/19 10:19:18;;;;;;;5.40;3.90;;;;;;;;;;5044832;28;20094;-86
2022/11/19 10:21:47;;;;;;;6.32;4.30;;;;;;;;;;5063776;28;20188;-85
2022/11/19 10:24:16;;;;;;;6.00;4.25;;;;;;;;;;5040448;28;20040;-85
2022/11/19 10:26:43;;;;;;;5.53;3.70;;;;;;;;;;5036588;28;20071;-84
2022/11/19 10:29:14;;;;;;;5.50;3.72;;;;;;;;;;5042626;28;20122;-84
2022/11/19 10:31:43;;;;;;;4.50;3.22;;;;;;;;;;5050032;28;20052;-85
2022/11/19 10:34:14;;;;;;;4.13;2.70;;;;;;;;;;5057174;28;20071;-84
2022/11/19 10:36:40;;;;;;;;;;;;;;;;;;5049768;28;20134;-85
2022/11/19 10:39:21;;;;;;;4.57;3.05;;;;;;;;;;5043160;28;20384;-85
2022/11/19 10:41:53;;;;;;;5.05;3.33;;;;;;;;;;5045243;28;20579;-85
2022/11/19 10:44:36;;;;;;;4.82;3.33;;;;;;;;;;5040896;28;20044;-85
2022/11/19 10:47:02;;;;;;;4.53;3.10;;;;;;;;;;5057908;28;20107;-86
2022/11/19 10:49:27;;;;;;;4.18;2.80;;;;;;;;;;5046420;28;20040;-85
2022/11/19 10:51:52;;;;;;;3.63;2.60;;;;;;;;;;5043635;28;20128;-87
2022/11/19 10:54:23;;;;;;;3.93;2.63;;;;;;;;;;5052704;28;20366;-86
2022/11/19 10:56:49;;;;;;;4.03;2.70;;;;;;;;;;5036509;28;20291;-88
2022/11/19 10:59:19;;;;;;;4.60;3.28;;;;;;;;;;5036408;28;20044;-88
2022/11/19 11:01:46;;;;;;;5.93;3.88;;;;;;;;;;5047014;28;20036;-88
2022/11/19 11:04:21;;;;;;;5.20;3.22;;;;;;;;;;5052560;28;20492;-87
2022/11/19 11:06:56;;;;;;;3.85;2.85;;;;;;;;;;5049240;28;20282;-86
2022/11/19 11:09:30;;;;;;;4.90;3.25;;;;;;;;;;5056454;28;20043;-82
2022/11/19 11:14:53;;;;;;;3.53;2.50;;;;;;;;;;5054028;28;20515;-85
2022/11/19 11:17:26;;;;;;;3.95;2.85;;;;;;;;;;5046400;28;20037;-86
2022/11/19 11:20:00;;;;;;;4.25;2.92;;;;;;;;;;5045272;28;20047;-85
2022/11/19 11:22:26;;;;;;;4.22;2.90;;;;;;;;;;5051771;28;20124;-85
2022/11/19 11:24:51;;;;;;;4.85;3.28;;;;;;;;;;5053632;28;20343;-86
2022/11/19 11:27:22;;;;;;;4.30;2.80;;;;;;;;;;5042360;28;20416;-85
2022/11/19 11:29:47;;;;;;;4.93;3.10;;;;;;;;;;5049314;28;20041;-85
2022/11/19 11:32:26;;;;;;;4.37;3.17;;;;;;;;;;5048590;28;20038;-85
2022/11/19 11:34:51;;;;;;;5.32;3.13;;;;;;;;;;5055525;28;20350;-85
2022/11/19 11:37:16;;;;;;;4.50;2.80;;;;;;;;;;5067819;28;20520;-85
2022/11/19 11:39:47;;;;;;;4.60;2.90;;;;;;;;;;5055647;28;20039;-86
2022/11/19 11:42:13;;;;;;;;;;;;;;;;;;5056628;28;20036;-85
2022/11/19 11:44:52;;;;;;;4.97;2.50;;;;;;;;;;5054716;28;19917;-86
2022/11/19 11:47:26;;;;;;;3.38;2.42;;;;;;;;;;5062211;28;20029;-85
2022/11/19 11:49:56;;;;;;;3.17;2.05;;;;;;;;;;5074408;28;20495;-85
2022/11/19 11:52:30;;;;;;;2.47;1.70;;;;;;;;;;5042889;28;20045;-86
2022/11/19 11:54:58;;;;;;;2.83;1.52;;;;;;;;;;5039864;28;20033;-85
2022/11/19 11:57:28;;;;;;;2.83;1.77;;;;;;;;;;5069629;28;20047;-86
2022/11/19 11:59:54;;;;;;;3.13;2.20;;;;;;;;;;5057700;28;20033;-86
2022/11/19 12:02:29;;;;;;;3.25;2.20;;;;;;;;;;5052411;28;20090;-85
2022/11/19 12:04:54;;;;;;;5.03;2.47;;;;;;;;;;5051866;28;20076;-86
2022/11/19 12:07:25;;;;;;;3.60;2.38;;;;;;;;;;5043608;28;20472;-84
2022/11/19 12:10:17;;;;;;;3.28;2.20;;;;;;;;;;5041667;28;20292;-86
2022/11/19 12:12:49;;;;;;;3.28;2.28;;;;;;;;;;5038029;28;20041;-84
2022/11/19 12:15:20;;;;;;;3.10;2.17;;;;;;;;;;5045709;28;20115;-85
2022/11/19 12:17:57;;;;;;;3.97;2.70;;;;;;;;;;5043383;28;20045;-86
2022/11/19 12:20:32;;;;;;;3.20;2.00;;;;;;;;;;5049541;28;20093;-86
2022/11/19 12:23:09;;;;;;;2.92;2.10;;;;;;;;;;5045543;28;20065;-86
2022/11/19 12:25:50;;;;;;;4.75;3.45;;;;;;;;;;5033011;28;20060;-85
2022/11/19 12:28:15;;;;;;;3.70;2.72;;;;;;;;;;5043971;28;20503;-85
2022/11/19 12:31:02;;;;;;;4.00;2.90;;;;;;;;;;5049200;28;20274;-85
2022/11/19 12:33:54;;;;;;;4.22;2.90;;;;;;;4.50;nan;99923.31;5062395;28;20124;-86
2022/11/19 12:36:41;;;;;;;4.50;2.92;;;;;;;4.45;nan;99923.69;5005424;28;20060;-86
2022/11/19 12:39:37;;;;;;;4.93;3.30;;;;;;;4.46;nan;99920.97;5052880;28;20087;-87
2022/11/19 12:42:27;;;;;;;4.47;3.20;;;;;;;4.50;nan;99925.94;5059929;28;20121;-86
2022/11/19 12:45:18;;;;;;;5.10;3.20;;;;;;;4.51;nan;99925.00;5044759;28;20040;-85
2022/11/19 12:48:02;;;;;;;4.75;3.38;;;;;;;4.45;nan;99929.75;5065871;28;20061;-85
2022/11/19 12:50:44;;;;;;;4.50;3.30;;;;;;;4.42;nan;99927.41;5042192;28;20045;-85
2022/11/19 12:53:32;;;;;;;6.35;3.83;;;;;;;4.42;nan;99930.00;5070495;28;20040;-85
2022/11/19 12:56:23;;;;;;;5.30;3.58;;;;;;;4.46;nan;99917.50;5030342;28;20044;-86
2022/11/19 12:58:53;;;;;;;6.38;4.25;;;;;;;4.43;nan;99918.59;5061336;28;20048;-85
2022/11/19 13:01:24;;;;;;;7.10;4.63;;;;;;;4.44;nan;99914.19;5049439;28;20091;-86
2022/11/19 13:04:08;;;;;;;7.97;4.63;;;;;;;4.45;nan;99916.66;5050175;28;20450;-85
2022/11/19 13:06:42;;;;;;;6.35;4.60;;;;;;;4.52;nan;99921.41;5054863;28;20250;-86
2022/11/19 13:09:19;;;;;;;6.22;4.30;;;;;;;4.62;nan;99917.03;5051368;28;20056;-85
2022/11/19 13:12:00;;;;;;;6.07;4.50;;;;;;;4.70;nan;99919.03;5061724;28;20040;-85
2022/11/19 13:14:28;;;;;;;;;;;;;;;4.67;nan;99928.81;5042224;28;20431;-83
2022/11/19 13:16:55;;;;;;;6.28;4.60;;;;;;;4.62;nan;99915.28;5046026;28;19948;-85
2022/11/19 13:19:30;;;;;;;6.13;4.47;;;;;;;4.63;nan;99919.53;5049466;28;20110;-84
2022/11/19 13:22:05;;;;;;;5.20;3.92;;;;;;;4.64;nan;99915.94;5051783;28;20028;-85
2022/11/19 13:24:42;;;;;;;5.88;4.15;;;;;;;4.67;nan;99907.88;5052255;28;20067;-85
2022/11/19 13:27:21;;;;;;;8.35;5.70;;;;;;;4.65;nan;99904.53;5054866;28;20360;-86
2022/11/19 13:29:52;;;;;;;9.30;6.53;;;;;;;4.66;nan;99921.06;5046698;28;20033;-85
2022/11/19 13:32:30;;;;;;;7.13;5.07;;;;;;;4.72;nan;99922.34;5047140;28;20423;-85
2022/11/19 13:35:26;;;;;;;6.00;3.97;;;;;;;4.71;nan;99928.53;5073624;28;20039;-85
2022/11/19 13:37:59;;;;;;;5.15;3.80;;;;;;;4.75;nan;99924.72;5053460;28;20536;-84
2022/11/19 13:40:39;;;;;;;6.05;4.03;;;;;;;4.80;nan;99930.41;5060253;28;20338;-83
2022/11/19 13:46:02;;;;;;;6.20;4.30;;;;;;;4.81;nan;99929.44;5056500;28;20454;-85
2022/11/19 13:48:33;;;;;;;5.15;3.72;;;;;;;4.81;nan;99927.63;5068162;28;20108;-85
2022/11/19 13:51:00;;;;;;;;;;;;;;;4.76;nan;99929.00;5040089;28;20032;-84
2022/11/19 13:53:34;;;;;;;6.10;4.43;;;;;;;4.71;nan;99936.41;5038008;28;19956;-84
2022/11/19 13:56:01;;;;;;;6.00;4.20;;;;;;;4.75;nan;99945.69;5047656;28;20041;-84
2022/11/19 13:58:35;;;;;;;5.93;4.20;;;;;;;4.71;nan;99939.84;5029779;28;20072;-84
2022/11/19 14:01:01;;;;;;;5.60;4.15;;;;;;;4.72;nan;99935.44;5041557;28;20078;-84
2022/11/19 14:04:02;;;;;;;5.57;4.10;;;;;;;4.79;nan;99937.44;5053140;28;20044;-84
2022/11/19 14:06:34;;;;;;;5.63;3.45;;;;;;;4.83;nan;99936.19;5048842;28;20093;-85
2022/11/19 14:09:38;;;;;;;5.50;3.85;;;;;;;4.78;nan;99937.56;5034160;28;20408;-85
2022/11/19 14:12:32;;;;;;;5.00;3.35;;;;;;;4.79;nan;99936.56;5050582;28;20059;-84
2022/11/19 14:27:30;;;;;;;5.38;4.03;;;;;;;4.71;nan;99950.31;5057244;28;20064;-84
2022/11/19 14:29:59;;;;;;;5.57;4.00;;;;;;;4.69;nan;99949.63;5048449;28;20101;-84
2022/11/19 14:32:32;;;;;;;7.05;4.90;;;;;;;4.60;nan;99955.63;5053024;28;20047;-85
2022/11/19 14:35:00;;;;;;;6.38;4.30;;;;;;;4.57;nan;99948.84;5026195;28;20043;-84
2022/11/19 14:37:36;;;;;;;6.47;4.20;;;;;;;4.56;nan;99949.81;5068036;28;20094;-85
2022/11/19 14:40:07;;;;;;;5.38;3.60;;;;;;;4.60;nan;99945.13;5035519;28;20051;-84
2022/11/19 14:44:06;;;;;;;6.72;4.25;;;;;;;4.60;nan;99947.75;5062159;28;20033;-84
2022/11/19 14:45:19;;;;;;;5.35;3.95;;;;;;;4.62;nan;99945.84;5066126;28;20032;-83
2022/11/19 14:47:46;;;;;;;5.65;4.00;;;;;;;4.65;nan;99948.22;5040865;28;20450;-88
2022/11/19 14:50:26;;;;;;;6.60;4.50;;;;;;;4.65;nan;99953.47;5051940;28;20111;-84
2022/11/19 14:52:54;;;;;;;7.20;4.85;;;;;;;4.63;nan;99958.00;5050949;28;20055;-84
2022/11/19 14:55:24;;;;;;;6.63;4.47;;;;;;;4.63;nan;99953.59;5054156;28;20075;-84
2022/11/19 14:58:03;;;;;;;6.78;4.40;;;;;;;4.61;nan;99958.13;5033543;28;20046;-87
2022/11/19 15:00:36;;;;;;;6.45;4.50;;;;;;;4.60;nan;99955.63;5061330;28;20040;-84